Tuesday, April 24, 2018, 4:34 AM EDT
Back to Local

KBDL, Bradley International Airport

Location: Windsor Locks, CT, United States Lat: 41.933
Local Time: 4:34 AM EDT ( 8:34 GMT) Lon: -72.683
Time Zone: US/Eastern Elev: 173 ft

Show me the last for .
Show Decoded

2018-04-24 03:51 METAR KBDL 240751Z 18004KT 10SM SCT250 04/00 A3040 RMK AO2 SLP294 T00440000 =
2018-04-24 02:51 METAR KBDL 240651Z 17004KT 10SM BKN250 05/M01 A3040 RMK AO2 SLP295 T00501006 =
2018-04-24 01:51 METAR KBDL 240551Z 18006KT 10SM BKN250 06/M01 A3041 RMK AO2 SLP298 T00561006
                 10139 20056 58005 =
2018-04-24 00:51 METAR KBDL 240451Z 18007KT 10SM BKN250 07/M02 A3042 RMK AO2 SLP302 T00671017
                 402001011 =
2018-04-23 23:51 METAR KBDL 240351Z 17007KT 10SM BKN250 08/M03 A3043 RMK AO2 SLP305 T00781033 =
2018-04-23 22:51 METAR KBDL 240251Z 17008KT 10SM SCT250 09/M04 A3042 RMK AO2 SLP303 T00891044
                 50010 =
2018-04-23 21:51 METAR KBDL 240151Z 17007KT 10SM FEW200 FEW250 10/M06 A3043 RMK AO2 SLP305
                 T01001056 =
2018-04-23 20:51 METAR KBDL 240051Z 17010KT 10SM FEW200 FEW250 12/M06 A3042 RMK AO2 SLP302
                 T01221061 =
2018-04-23 19:51 METAR KBDL 232351Z 18010KT 10SM FEW200 FEW250 14/M06 A3039 RMK AO2 SLP293
                 T01391061 10200 20139 53004 =
2018-04-23 18:51 METAR KBDL 232251Z 18015KT 10SM FEW250 16/M06 A3038 RMK AO2 SLP289 T01611056 =
2018-04-23 17:51 METAR KBDL 232151Z 19011KT 10SM FEW250 19/M06 A3038 RMK AO2 SLP287 T01891061 =
2018-04-23 16:51 METAR KBDL 232051Z 20008KT 10SM FEW250 20/M10 A3038 RMK AO2 SLP289 T02001100
                 56019 =
2018-04-23 15:51 METAR KBDL 231951Z 19006KT 10SM FEW250 20/M11 A3040 RMK AO2 SLP294 T02001106 =
2018-04-23 14:51 METAR KBDL 231851Z 00000KT 10SM FEW250 18/M10 A3041 RMK AO2 SLP299 T01831100 =
2018-04-23 13:51 METAR KBDL 231751Z VRB03KT 10SM FEW250 17/M08 A3044 RMK AO2 SLP308 T01721083
                 10178 20061 58017 =
2018-04-23 12:51 METAR KBDL 231651Z 02006KT 10SM FEW250 17/M08 A3046 RMK AO2 SLP316 T01721083 =
2018-04-23 11:51 METAR KBDL 231551Z 15004KT 10SM FEW250 15/M07 A3048 RMK AO2 SLP321 T01501072 =
2018-04-23 10:51 METAR KBDL 231451Z 03006KT 10SM FEW250 14/M09 A3049 RMK AO2 SLP325 T01441089
                 58004 =
2018-04-23 09:51 METAR KBDL 231351Z VRB04KT 10SM CLR 12/M04 A3050 RMK AO2 SLP328 T01221039 =
2018-04-23 08:51 METAR KBDL 231251Z 03005KT 10SM CLR 09/M04 A3051 RMK AO2 SLP331 T00891044 =
2018-04-23 07:51 METAR KBDL 231151Z 03005KT 10SM CLR 06/M04 A3050 RMK AO2 SLP329 T00611039 10061
                 21011 53016 =
2018-04-23 06:51 METAR KBDL 231051Z 02004KT 10SM CLR 02/M04 A3049 RMK AO2 SLP325 T00171039 =
2018-04-23 05:51 METAR KBDL 230951Z 00000KT 10SM CLR M01/M04 A3046 RMK AO2 SLP317 T10061039 =
2018-04-23 04:51 METAR KBDL 230851Z 00000KT 10SM CLR M01/M04 A3045 RMK AO2 SLP313 T10061044 51015
                 =

Support USWX by starting your Amazon purchase here.